Michael S — 9HQZ9 — position and weather

sailwx.info

Track history (hours):
 
Tides and Currents Weather Stations Pressure Air Temp Water Temp Dewpoint Dewpoint Depression Visibility Wind Speed Wind Dir Waves Ship Positions

Michael S

Last reported at 2018-Jan-27 07:20 UTC. Time now 2018-Feb-18 05:27 UTC.
Position N 07°51' W 014°33'.
Warning: this ship's position is 21 days out of date.

Length 190 m; draft 10.1 m.

Type: Ship. MMSI: 249393000.

Date/timePositionNaut miles runAvg speedWind from/ knotsBaromVisibWave heightAir tempDewpointWater temp
2018-Jan-27 07:20N 07°51' W 014°33'413.2
2018-Jan-27 07:00N 07°54' W 014°36'713.4
2018-Jan-27 06:30N 07°59' W 014°40'713.3
2018-Jan-27 06:00N 08°04' W 014°45'1013.1
2018-Jan-27 05:16N 08°11' W 014°51'313.0
2018-Jan-27 05:00N 08°14' W 014°53'613.0
2018-Jan-27 04:31N 08°19' W 014°57'713.2
2018-Jan-27 04:00N 08°24' W 015°02'3013.1
2018-Jan-27 01:44N 08°46' W 015°22'413.2
2018-Jan-27 01:26N 08°49' W 015°24'613.1
2018-Jan-27 01:00N 08°53' W 015°28'712.9
2018-Jan-27 00:29N 08°58' W 015°33'612.8
2018-Jan-27 00:00N 09°03' W 015°37'712.8
2018-Jan-26 23:27N 09°08' W 015°41'612.8
2018-Jan-26 23:00N 09°13' W 015°45'713.0
2018-Jan-26 22:30N 09°18' W 015°50'713.1
2018-Jan-26 22:00N 09°23' W 015°54'1313.1
2018-Jan-26 21:00N 09°32' W 016°03'713.2
2018-Jan-26 20:30N 09°37' W 016°07'713.3
2018-Jan-26 20:00N 09°42' W 016°12'713.2
2018-Jan-26 19:30N 09°47' W 016°16'713.1
2018-Jan-26 18:58N 09°52' W 016°21'713.1
2018-Jan-26 18:28N 09°57' W 016°26'613.1
2018-Jan-26 17:59N 10°02' W 016°30'713.1
2018-Jan-26 17:28N 10°07' W 016°34'713.5
2018-Jan-26 16:56N 10°13' W 016°39'613.4
2018-Jan-26 16:30N 10°17' W 016°43'1613.4
2018-Jan-26 15:21N 10°29' W 016°53'6113.1
2018-Jan-26 10:40N 11°19' W 017°29'214.0
2018-Jan-26 10:30N 11°21' W 017°29'  
2018-Jan-21 21:58N 32°56' W 009°33'26713.5
2018-Jan-21 02:07N 35°57' W 005°35'212.4
2018-Jan-21 02:00N 35°58' W 005°33'511.1
2018-Jan-21 01:31N 36°00' W 005°27'5 9.2
2018-Jan-21 00:58N 36°03' W 005°22'1 2.1
2018-Jan-21 00:22N 36°04' W 005°21'0 0.6
2018-Jan-20 23:56N 36°04' W 005°22'1 0.8
2018-Jan-20 23:16N 36°04' W 005°22'0 0.6
2018-Jan-20 23:00N 36°04' W 005°22'0 0.6
2018-Jan-20 22:28N 36°04' W 005°22'0 0.3
2018-Jan-20 22:00N 36°04' W 005°23'3 0.2
2018-Jan-20 08:35N 36°05' W 005°20'1 3.9
2018-Jan-20 08:22N 36°05' W 005°19'8 1.3
2018-Jan-20 01:52N 36°06' W 005°08'0 0.3
2018-Jan-20 01:19N 36°06' W 005°08'0 0.5
2018-Jan-20 00:59N 36°06' W 005°08'0 0.5
2018-Jan-20 00:30N 36°07' W 005°08'0 0.8
2018-Jan-20 00:01N 36°06' W 005°08'2 3.5
2018-Jan-19 23:31N 36°05' W 005°08'0 0.3
2018-Jan-19 23:00N 36°05' W 005°08'0 0.7
2018-Jan-19 22:31N 36°05' W 005°08'0 0.8
2018-Jan-19 22:01N 36°06' W 005°08'1 1.0
2018-Jan-19 21:31N 36°06' W 005°09'0 0.9
2018-Jan-19 21:00N 36°06' W 005°09'1 1.6
2018-Jan-19 20:30N 36°07' W 005°08'1 1.1
2018-Jan-19 20:01N 36°07' W 005°08'0 0.9
2018-Jan-19 19:30N 36°07' W 005°09'0 1.0
2018-Jan-19 19:01N 36°07' W 005°09'1 1.1
2018-Jan-19 18:31N 36°08' W 005°10'1 1.1
2018-Jan-19 18:00N 36°08' W 005°10'1 1.1
2018-Jan-19 17:30N 36°08' W 005°11'1 1.3
2018-Jan-19 17:00N 36°09' W 005°11'2 4.3
2018-Jan-19 16:30N 36°10' W 005°13'2 4.3
2018-Jan-19 16:00N 36°12' W 005°14'0 0.7
2018-Jan-19 15:30N 36°12' W 005°14'0 1.0
2018-Jan-19 15:01N 36°12' W 005°14'0 0.5
2018-Jan-19 14:30N 36°11' W 005°14'0 0.5
2018-Jan-19 14:00N 36°11' W 005°13'1 1.5
2018-Jan-19 13:31N 36°11' W 005°13'2 4.5
2018-Jan-19 13:01N 36°09' W 005°12'0 0.9
2018-Jan-19 12:30N 36°09' W 005°12'1 2.1
2018-Jan-19 12:00N 36°08' W 005°13'1 2.5
2018-Jan-19 11:30N 36°07' W 005°13'1 1.3
2018-Jan-19 11:00N 36°07' W 005°12'1 1.1
2018-Jan-19 10:30N 36°07' W 005°11'1 1.2
2018-Jan-19 10:01N 36°08' W 005°11'0 0.7
2018-Jan-19 09:30N 36°08' W 005°11'1 2.4
2018-Jan-19 09:01N 36°07' W 005°11'0 0.4
2018-Jan-19 08:30N 36°07' W 005°11'0 0.4
2018-Jan-19 08:00N 36°07' W 005°11'0 0.4
2018-Jan-19 07:30N 36°07' W 005°10'0 0.8
2018-Jan-19 07:00N 36°08' W 005°10'0 0.7
2018-Jan-19 06:30N 36°08' W 005°10'1 1.1
2018-Jan-19 05:58N 36°08' W 005°10'4 8.2
2018-Jan-19 05:31N 36°07' W 005°05'3 6.2
2018-Jan-19 05:01N 36°06' W 005°01'  
Track history (hours):
 
Tides and Currents Weather Stations Pressure Air Temp Water Temp Dewpoint Dewpoint Depression Visibility Wind Speed Wind Dir Waves Ship Positions

Michael S

Last reported at 2018-Jan-27 07:20 UTC. Time now 2018-Feb-18 05:27 UTC.
Position N 07°51' W 014°33'.
Warning: this ship's position is 21 days out of date.

Length 190 m; draft 10.1 m.

Type: Ship. MMSI: 249393000.

Date/timePositionNaut miles runAvg speedWind from/ knotsBaromVisibWave heightAir tempDewpointWater temp
2018-Jan-27 07:20N 07°51' W 014°33'413.2
2018-Jan-27 07:00N 07°54' W 014°36'713.4
2018-Jan-27 06:30N 07°59' W 014°40'713.3
2018-Jan-27 06:00N 08°04' W 014°45'1013.1
2018-Jan-27 05:16N 08°11' W 014°51'313.0
2018-Jan-27 05:00N 08°14' W 014°53'613.0
2018-Jan-27 04:31N 08°19' W 014°57'713.2
2018-Jan-27 04:00N 08°24' W 015°02'3013.1
2018-Jan-27 01:44N 08°46' W 015°22'413.2
2018-Jan-27 01:26N 08°49' W 015°24'613.1
2018-Jan-27 01:00N 08°53' W 015°28'712.9
2018-Jan-27 00:29N 08°58' W 015°33'612.8
2018-Jan-27 00:00N 09°03' W 015°37'712.8
2018-Jan-26 23:27N 09°08' W 015°41'612.8
2018-Jan-26 23:00N 09°13' W 015°45'713.0
2018-Jan-26 22:30N 09°18' W 015°50'713.1
2018-Jan-26 22:00N 09°23' W 015°54'1313.1
2018-Jan-26 21:00N 09°32' W 016°03'713.2
2018-Jan-26 20:30N 09°37' W 016°07'713.3
2018-Jan-26 20:00N 09°42' W 016°12'713.2
2018-Jan-26 19:30N 09°47' W 016°16'713.1
2018-Jan-26 18:58N 09°52' W 016°21'713.1
2018-Jan-26 18:28N 09°57' W 016°26'613.1
2018-Jan-26 17:59N 10°02' W 016°30'713.1
2018-Jan-26 17:28N 10°07' W 016°34'713.5
2018-Jan-26 16:56N 10°13' W 016°39'613.4
2018-Jan-26 16:30N 10°17' W 016°43'1613.4
2018-Jan-26 15:21N 10°29' W 016°53'6113.1
2018-Jan-26 10:40N 11°19' W 017°29'214.0
2018-Jan-26 10:30N 11°21' W 017°29'  
2018-Jan-21 21:58N 32°56' W 009°33'26713.5
2018-Jan-21 02:07N 35°57' W 005°35'212.4
2018-Jan-21 02:00N 35°58' W 005°33'511.1
2018-Jan-21 01:31N 36°00' W 005°27'5 9.2
2018-Jan-21 00:58N 36°03' W 005°22'1 2.1
2018-Jan-21 00:22N 36°04' W 005°21'0 0.6
2018-Jan-20 23:56N 36°04' W 005°22'1 0.8
2018-Jan-20 23:16N 36°04' W 005°22'0 0.6
2018-Jan-20 23:00N 36°04' W 005°22'0 0.6
2018-Jan-20 22:28N 36°04' W 005°22'0 0.3
2018-Jan-20 22:00N 36°04' W 005°23'3 0.2
2018-Jan-20 08:35N 36°05' W 005°20'1 3.9
2018-Jan-20 08:22N 36°05' W 005°19'8 1.3
2018-Jan-20 01:52N 36°06' W 005°08'0 0.3
2018-Jan-20 01:19N 36°06' W 005°08'0 0.5
2018-Jan-20 00:59N 36°06' W 005°08'0 0.5
2018-Jan-20 00:30N 36°07' W 005°08'0 0.8
2018-Jan-20 00:01N 36°06' W 005°08'2 3.5
2018-Jan-19 23:31N 36°05' W 005°08'0 0.3
2018-Jan-19 23:00N 36°05' W 005°08'0 0.7
2018-Jan-19 22:31N 36°05' W 005°08'0 0.8
2018-Jan-19 22:01N 36°06' W 005°08'1 1.0
2018-Jan-19 21:31N 36°06' W 005°09'0 0.9
2018-Jan-19 21:00N 36°06' W 005°09'1 1.6
2018-Jan-19 20:30N 36°07' W 005°08'1 1.1
2018-Jan-19 20:01N 36°07' W 005°08'0 0.9
2018-Jan-19 19:30N 36°07' W 005°09'0 1.0
2018-Jan-19 19:01N 36°07' W 005°09'1 1.1
2018-Jan-19 18:31N 36°08' W 005°10'1 1.1
2018-Jan-19 18:00N 36°08' W 005°10'1 1.1
2018-Jan-19 17:30N 36°08' W 005°11'1 1.3
2018-Jan-19 17:00N 36°09' W 005°11'2 4.3
2018-Jan-19 16:30N 36°10' W 005°13'2 4.3
2018-Jan-19 16:00N 36°12' W 005°14'0 0.7
2018-Jan-19 15:30N 36°12' W 005°14'0 1.0
2018-Jan-19 15:01N 36°12' W 005°14'0 0.5
2018-Jan-19 14:30N 36°11' W 005°14'0 0.5
2018-Jan-19 14:00N 36°11' W 005°13'1 1.5
2018-Jan-19 13:31N 36°11' W 005°13'2 4.5
2018-Jan-19 13:01N 36°09' W 005°12'0 0.9
2018-Jan-19 12:30N 36°09' W 005°12'1 2.1
2018-Jan-19 12:00N 36°08' W 005°13'1 2.5
2018-Jan-19 11:30N 36°07' W 005°13'1 1.3
2018-Jan-19 11:00N 36°07' W 005°12'1 1.1
2018-Jan-19 10:30N 36°07' W 005°11'1 1.2
2018-Jan-19 10:01N 36°08' W 005°11'0 0.7
2018-Jan-19 09:30N 36°08' W 005°11'1 2.4
2018-Jan-19 09:01N 36°07' W 005°11'0 0.4
2018-Jan-19 08:30N 36°07' W 005°11'0 0.4
2018-Jan-19 08:00N 36°07' W 005°11'0 0.4
2018-Jan-19 07:30N 36°07' W 005°10'0 0.8
2018-Jan-19 07:00N 36°08' W 005°10'0 0.7
2018-Jan-19 06:30N 36°08' W 005°10'1 1.1
2018-Jan-19 05:58N 36°08' W 005°10'4 8.2
2018-Jan-19 05:31N 36°07' W 005°05'3 6.2
2018-Jan-19 05:01N 36°06' W 005°01'  

Dump ship's entire track history